sensor_id;sensor_type;location;lat;lon;timestamp;P1;durP1;ratioP1;P2;durP2;ratioP2
4597;SDS011;62772;48.646;8.906;2022-09-06T00:02:04;6.40;;;4.77;;
4597;SDS011;62772;48.646;8.906;2022-09-06T00:07:07;6.77;;;5.00;;
4597;SDS011;62772;48.646;8.906;2022-09-06T00:12:08;6.20;;;4.67;;
4597;SDS011;62772;48.646;8.906;2022-09-06T00:17:09;6.30;;;4.40;;
4597;SDS011;62772;48.646;8.906;2022-09-06T00:22:12;8.00;;;4.90;;
4597;SDS011;62772;48.646;8.906;2022-09-06T00:27:12;6.70;;;4.60;;
4597;SDS011;62772;48.646;8.906;2022-09-06T00:32:13;7.67;;;4.97;;
4597;SDS011;62772;48.646;8.906;2022-09-06T00:37:17;9.40;;;4.30;;
4597;SDS011;62772;48.646;8.906;2022-09-06T00:42:17;6.33;;;4.80;;
4597;SDS011;62772;48.646;8.906;2022-09-06T00:47:18;8.63;;;4.80;;
4597;SDS011;62772;48.646;8.906;2022-09-06T00:52:21;7.67;;;4.27;;
4597;SDS011;62772;48.646;8.906;2022-09-06T00:57:24;6.70;;;4.70;;
4597;SDS011;62772;48.646;8.906;2022-09-06T01:02:26;6.60;;;4.40;;
4597;SDS011;62772;48.646;8.906;2022-09-06T01:07:33;7.40;;;4.77;;
4597;SDS011;62772;48.646;8.906;2022-09-06T01:12:45;12.27;;;4.93;;
4597;SDS011;62772;48.646;8.906;2022-09-06T01:17:57;6.80;;;5.00;;
4597;SDS011;62772;48.646;8.906;2022-09-06T01:28:55;5.80;;;4.27;;
4597;SDS011;62772;48.646;8.906;2022-09-06T01:34:10;9.93;;;5.40;;
4597;SDS011;62772;48.646;8.906;2022-09-06T01:39:21;8.03;;;4.93;;
4597;SDS011;62772;48.646;8.906;2022-09-06T01:44:27;7.43;;;4.63;;
4597;SDS011;62772;48.646;8.906;2022-09-06T01:49:32;6.53;;;4.77;;
4597;SDS011;62772;48.646;8.906;2022-09-06T01:54:50;9.20;;;4.97;;
4597;SDS011;62772;48.646;8.906;2022-09-06T02:00:07;8.50;;;5.50;;
4597;SDS011;62772;48.646;8.906;2022-09-06T02:05:15;16.50;;;5.60;;
4597;SDS011;62772;48.646;8.906;2022-09-06T02:10:22;7.93;;;5.57;;
4597;SDS011;62772;48.646;8.906;2022-09-06T02:15:30;9.17;;;6.53;;
4597;SDS011;62772;48.646;8.906;2022-09-06T02:20:34;10.80;;;5.60;;
4597;SDS011;62772;48.646;8.906;2022-09-06T02:25:40;8.57;;;5.40;;
4597;SDS011;62772;48.646;8.906;2022-09-06T02:30:49;8.70;;;5.37;;
4597;SDS011;62772;48.646;8.906;2022-09-06T02:35:52;8.63;;;4.97;;
4597;SDS011;62772;48.646;8.906;2022-09-06T02:40:54;8.33;;;5.07;;
4597;SDS011;62772;48.646;8.906;2022-09-06T02:45:58;7.73;;;5.20;;
4597;SDS011;62772;48.646;8.906;2022-09-06T02:51:01;8.83;;;5.73;;
4597;SDS011;62772;48.646;8.906;2022-09-06T02:56:02;6.93;;;4.40;;
4597;SDS011;62772;48.646;8.906;2022-09-06T03:01:06;7.60;;;5.03;;
4597;SDS011;62772;48.646;8.906;2022-09-06T03:06:07;6.43;;;5.30;;
4597;SDS011;62772;48.646;8.906;2022-09-06T03:11:07;8.00;;;5.63;;
4597;SDS011;62772;48.646;8.906;2022-09-06T03:16:11;9.80;;;5.10;;
4597;SDS011;62772;48.646;8.906;2022-09-06T03:21:11;10.73;;;6.00;;
4597;SDS011;62772;48.646;8.906;2022-09-06T03:26:12;7.83;;;5.73;;
4597;SDS011;62772;48.646;8.906;2022-09-06T03:31:15;9.00;;;5.73;;
4597;SDS011;62772;48.646;8.906;2022-09-06T03:36:16;10.00;;;5.63;;
4597;SDS011;62772;48.646;8.906;2022-09-06T03:41:17;10.10;;;6.00;;
4597;SDS011;62772;48.646;8.906;2022-09-06T03:46:20;10.50;;;5.87;;
4597;SDS011;62772;48.646;8.906;2022-09-06T03:51:21;13.43;;;5.90;;
4597;SDS011;62772;48.646;8.906;2022-09-06T03:56:21;8.33;;;5.53;;
4597;SDS011;62772;48.646;8.906;2022-09-06T04:01:25;8.33;;;5.40;;
4597;SDS011;62772;48.646;8.906;2022-09-06T04:06:26;7.93;;;5.60;;
4597;SDS011;62772;48.646;8.906;2022-09-06T04:11:26;9.97;;;5.60;;
4597;SDS011;62772;48.646;8.906;2022-09-06T04:16:30;14.00;;;6.30;;
4597;SDS011;62772;48.646;8.906;2022-09-06T04:21:31;9.57;;;5.23;;
4597;SDS011;62772;48.646;8.906;2022-09-06T04:26:31;11.60;;;6.60;;
4597;SDS011;62772;48.646;8.906;2022-09-06T04:31:35;9.83;;;6.20;;
4597;SDS011;62772;48.646;8.906;2022-09-06T04:36:35;8.70;;;6.20;;
4597;SDS011;62772;48.646;8.906;2022-09-06T04:41:36;9.03;;;6.10;;
4597;SDS011;62772;48.646;8.906;2022-09-06T04:46:40;8.90;;;6.27;;
4597;SDS011;62772;48.646;8.906;2022-09-06T04:51:41;9.60;;;6.60;;
4597;SDS011;62772;48.646;8.906;2022-09-06T04:56:42;10.70;;;7.07;;
4597;SDS011;62772;48.646;8.906;2022-09-06T05:01:45;8.87;;;6.30;;
4597;SDS011;62772;48.646;8.906;2022-09-06T05:06:46;13.13;;;8.23;;
4597;SDS011;62772;48.646;8.906;2022-09-06T05:11:47;12.00;;;6.90;;
4597;SDS011;62772;48.646;8.906;2022-09-06T05:16:51;12.70;;;8.00;;
4597;SDS011;62772;48.646;8.906;2022-09-06T05:21:52;11.93;;;7.40;;
4597;SDS011;62772;48.646;8.906;2022-09-06T05:26:53;12.70;;;8.60;;
4597;SDS011;62772;48.646;8.906;2022-09-06T05:31:56;13.10;;;8.43;;
4597;SDS011;62772;48.646;8.906;2022-09-06T05:36:57;10.77;;;7.90;;
4597;SDS011;62772;48.646;8.906;2022-09-06T05:41:57;11.40;;;8.33;;
4597;SDS011;62772;48.646;8.906;2022-09-06T05:47:02;13.73;;;7.90;;
4597;SDS011;62772;48.646;8.906;2022-09-06T05:52:03;16.10;;;9.37;;
4597;SDS011;62772;48.646;8.906;2022-09-06T05:57:04;12.77;;;8.53;;
4597;SDS011;62772;48.646;8.906;2022-09-06T06:02:07;14.13;;;8.60;;
4597;SDS011;62772;48.646;8.906;2022-09-06T06:07:08;15.03;;;8.10;;
4597;SDS011;62772;48.646;8.906;2022-09-06T06:12:09;16.63;;;8.63;;
4597;SDS011;62772;48.646;8.906;2022-09-06T06:17:12;12.83;;;8.70;;
4597;SDS011;62772;48.646;8.906;2022-09-06T06:22:13;13.60;;;8.33;;
4597;SDS011;62772;48.646;8.906;2022-09-06T06:27:13;12.60;;;8.23;;
4597;SDS011;62772;48.646;8.906;2022-09-06T06:32:17;12.50;;;8.50;;
4597;SDS011;62772;48.646;8.906;2022-09-06T06:37:17;14.27;;;8.20;;
4597;SDS011;62772;48.646;8.906;2022-09-06T06:42:18;12.57;;;7.73;;
4597;SDS011;62772;48.646;8.906;2022-09-06T06:47:28;14.90;;;8.17;;
4597;SDS011;62772;48.646;8.906;2022-09-06T06:52:29;12.17;;;7.00;;
4597;SDS011;62772;48.646;8.906;2022-09-06T06:57:30;10.63;;;7.00;;
4597;SDS011;62772;48.646;8.906;2022-09-06T07:02:33;10.90;;;7.30;;
4597;SDS011;62772;48.646;8.906;2022-09-06T07:07:34;11.03;;;7.10;;
4597;SDS011;62772;48.646;8.906;2022-09-06T07:12:35;11.73;;;7.13;;
4597;SDS011;62772;48.646;8.906;2022-09-06T07:17:38;17.03;;;6.63;;
4597;SDS011;62772;48.646;8.906;2022-09-06T07:22:39;10.80;;;6.20;;
4597;SDS011;62772;48.646;8.906;2022-09-06T07:27:40;11.53;;;6.03;;
4597;SDS011;62772;48.646;8.906;2022-09-06T07:32:45;13.47;;;6.70;;
4597;SDS011;62772;48.646;8.906;2022-09-06T07:37:52;12.07;;;6.43;;
4597;SDS011;62772;48.646;8.906;2022-09-06T07:42:55;10.03;;;5.80;;
4597;SDS011;62772;48.646;8.906;2022-09-06T07:47:58;9.30;;;6.30;;
4597;SDS011;62772;48.646;8.906;2022-09-06T07:53:02;7.50;;;5.67;;
4597;SDS011;62772;48.646;8.906;2022-09-06T07:58:04;9.43;;;6.30;;
4597;SDS011;62772;48.646;8.906;2022-09-06T08:03:07;17.37;;;6.43;;
4597;SDS011;62772;48.646;8.906;2022-09-06T08:08:08;7.80;;;5.33;;
4597;SDS011;62772;48.646;8.906;2022-09-06T08:13:09;11.50;;;6.33;;
4597;SDS011;62772;48.646;8.906;2022-09-06T08:18:12;9.80;;;6.20;;
4597;SDS011;62772;48.646;8.906;2022-09-06T08:23:13;8.57;;;6.20;;
4597;SDS011;62772;48.646;8.906;2022-09-06T08:28:14;10.40;;;6.13;;
4597;SDS011;62772;48.646;8.906;2022-09-06T08:33:17;9.80;;;6.00;;
4597;SDS011;62772;48.646;8.906;2022-09-06T08:38:24;12.90;;;6.53;;
4597;SDS011;62772;48.646;8.906;2022-09-06T08:43:26;12.83;;;6.63;;
4597;SDS011;62772;48.646;8.906;2022-09-06T08:48:30;8.60;;;5.40;;
4597;SDS011;62772;48.646;8.906;2022-09-06T08:53:33;9.20;;;5.40;;
4597;SDS011;62772;48.646;8.906;2022-09-06T08:58:44;17.20;;;5.43;;
4597;SDS011;62772;48.646;8.906;2022-09-06T09:04:01;10.10;;;4.90;;
4597;SDS011;62772;48.646;8.906;2022-09-06T09:09:05;8.20;;;4.93;;
4597;SDS011;62772;48.646;8.906;2022-09-06T09:14:11;9.70;;;5.07;;
4597;SDS011;62772;48.646;8.906;2022-09-06T09:19:18;7.13;;;5.10;;
4597;SDS011;62772;48.646;8.906;2022-09-06T09:24:19;15.20;;;4.70;;
4597;SDS011;62772;48.646;8.906;2022-09-06T09:29:20;11.53;;;4.90;;
4597;SDS011;62772;48.646;8.906;2022-09-06T09:34:30;11.43;;;5.43;;
4597;SDS011;62772;48.646;8.906;2022-09-06T09:39:33;11.20;;;5.90;;
4597;SDS011;62772;48.646;8.906;2022-09-06T09:44:36;14.03;;;5.70;;
4597;SDS011;62772;48.646;8.906;2022-09-06T09:49:45;10.23;;;5.17;;
4597;SDS011;62772;48.646;8.906;2022-09-06T09:54:45;8.03;;;5.40;;
4597;SDS011;62772;48.646;8.906;2022-09-06T09:59:48;10.50;;;5.20;;
4597;SDS011;62772;48.646;8.906;2022-09-06T10:04:59;7.40;;;4.50;;
4597;SDS011;62772;48.646;8.906;2022-09-06T10:10:02;17.37;;;4.97;;
4597;SDS011;62772;48.646;8.906;2022-09-06T10:15:04;7.77;;;4.47;;
4597;SDS011;62772;48.646;8.906;2022-09-06T10:20:09;10.67;;;5.10;;
4597;SDS011;62772;48.646;8.906;2022-09-06T10:30:40;8.32;;;5.07;;
4597;SDS011;62772;48.646;8.906;2022-09-06T10:35:49;10.63;;;4.55;;
4597;SDS011;62772;48.646;8.906;2022-09-06T10:40:54;14.30;;;4.50;;
4597;SDS011;62772;48.646;8.906;2022-09-06T10:46:00;10.43;;;4.75;;
4597;SDS011;62772;48.646;8.906;2022-09-06T10:51:08;10.30;;;4.38;;
4597;SDS011;62772;48.646;8.906;2022-09-06T10:56:19;10.07;;;4.15;;
4597;SDS011;62772;48.646;8.906;2022-09-06T11:01:27;8.30;;;4.28;;
4597;SDS011;62772;48.646;8.906;2022-09-06T11:06:39;18.98;;;4.25;;
4597;SDS011;62772;48.646;8.906;2022-09-06T11:11:46;9.45;;;4.03;;
4597;SDS011;62772;48.646;8.906;2022-09-06T11:16:53;8.40;;;4.03;;
4597;SDS011;62772;48.646;8.906;2022-09-06T11:27:41;13.93;;;3.70;;
4597;SDS011;62772;48.646;8.906;2022-09-06T11:32:45;11.43;;;4.00;;
4597;SDS011;62772;48.646;8.906;2022-09-06T11:37:59;7.65;;;3.22;;
4597;SDS011;62772;48.646;8.906;2022-09-06T11:43:12;10.23;;;4.70;;
4597;SDS011;62772;48.646;8.906;2022-09-06T11:59:05;7.00;;;4.13;;
4597;SDS011;62772;48.646;8.906;2022-09-06T12:04:18;14.02;;;3.80;;
4597;SDS011;62772;48.646;8.906;2022-09-06T12:09:29;7.47;;;3.38;;
4597;SDS011;62772;48.646;8.906;2022-09-06T12:14:32;8.73;;;3.53;;
4597;SDS011;62772;48.646;8.906;2022-09-06T12:19:39;11.05;;;3.58;;
4597;SDS011;62772;48.646;8.906;2022-09-06T12:24:55;11.80;;;3.58;;
4597;SDS011;62772;48.646;8.906;2022-09-06T12:29:59;7.05;;;3.53;;
4597;SDS011;62772;48.646;8.906;2022-09-06T12:35:04;5.55;;;2.72;;
4597;SDS011;62772;48.646;8.906;2022-09-06T12:40:16;8.25;;;3.00;;
4597;SDS011;62772;48.646;8.906;2022-09-06T12:45:19;7.57;;;3.28;;
4597;SDS011;62772;48.646;8.906;2022-09-06T12:50:22;4.57;;;2.67;;
4597;SDS011;62772;48.646;8.906;2022-09-06T12:55:28;8.85;;;2.80;;
4597;SDS011;62772;48.646;8.906;2022-09-06T13:00:32;6.82;;;3.40;;
4597;SDS011;62772;48.646;8.906;2022-09-06T13:05:37;7.28;;;2.75;;
4597;SDS011;62772;48.646;8.906;2022-09-06T13:10:41;13.80;;;2.70;;
4597;SDS011;62772;48.646;8.906;2022-09-06T13:15:45;5.95;;;2.65;;
4597;SDS011;62772;48.646;8.906;2022-09-06T13:20:55;7.20;;;3.00;;
4597;SDS011;62772;48.646;8.906;2022-09-06T13:26:00;7.55;;;2.90;;
4597;SDS011;62772;48.646;8.906;2022-09-06T13:31:01;14.35;;;3.45;;
4597;SDS011;62772;48.646;8.906;2022-09-06T13:36:15;7.32;;;3.05;;
4597;SDS011;62772;48.646;8.906;2022-09-06T13:41:39;5.03;;;3.10;;
4597;SDS011;62772;48.646;8.906;2022-09-06T13:46:40;11.05;;;3.03;;
4597;SDS011;62772;48.646;8.906;2022-09-06T13:51:41;7.03;;;2.63;;
4597;SDS011;62772;48.646;8.906;2022-09-06T13:56:45;10.52;;;2.83;;
4597;SDS011;62772;48.646;8.906;2022-09-06T14:01:49;4.68;;;3.00;;
4597;SDS011;62772;48.646;8.906;2022-09-06T14:06:55;4.45;;;2.70;;
4597;SDS011;62772;48.646;8.906;2022-09-06T14:11:59;9.60;;;2.70;;
4597;SDS011;62772;48.646;8.906;2022-09-06T14:17:00;8.60;;;2.95;;
4597;SDS011;62772;48.646;8.906;2022-09-06T14:22:00;4.95;;;2.40;;
4597;SDS011;62772;48.646;8.906;2022-09-06T14:27:06;7.30;;;4.15;;
4597;SDS011;62772;48.646;8.906;2022-09-06T14:32:07;4.10;;;2.53;;
4597;SDS011;62772;48.646;8.906;2022-09-06T14:37:08;4.03;;;1.92;;
4597;SDS011;62772;48.646;8.906;2022-09-06T14:42:11;4.90;;;2.40;;
4597;SDS011;62772;48.646;8.906;2022-09-06T14:47:12;3.97;;;1.90;;
4597;SDS011;62772;48.646;8.906;2022-09-06T14:52:13;6.90;;;1.85;;
4597;SDS011;62772;48.646;8.906;2022-09-06T14:57:16;3.67;;;1.48;;
4597;SDS011;62772;48.646;8.906;2022-09-06T15:02:17;5.70;;;1.73;;
4597;SDS011;62772;48.646;8.906;2022-09-06T15:07:17;5.85;;;2.30;;
4597;SDS011;62772;48.646;8.906;2022-09-06T15:12:21;4.07;;;1.80;;
4597;SDS011;62772;48.646;8.906;2022-09-06T15:17:22;3.10;;;2.05;;
4597;SDS011;62772;48.646;8.906;2022-09-06T15:22:22;3.08;;;2.00;;
4597;SDS011;62772;48.646;8.906;2022-09-06T15:27:26;4.60;;;1.70;;
4597;SDS011;62772;48.646;8.906;2022-09-06T15:32:27;7.25;;;2.10;;
4597;SDS011;62772;48.646;8.906;2022-09-06T15:37:28;3.45;;;2.00;;
4597;SDS011;62772;48.646;8.906;2022-09-06T15:42:31;3.80;;;2.13;;
4597;SDS011;62772;48.646;8.906;2022-09-06T15:47:33;4.80;;;2.38;;
4597;SDS011;62772;48.646;8.906;2022-09-06T15:52:34;8.40;;;2.30;;
4597;SDS011;62772;48.646;8.906;2022-09-06T15:57:37;6.28;;;2.72;;
4597;SDS011;62772;48.646;8.906;2022-09-06T16:02:38;5.63;;;2.00;;
4597;SDS011;62772;48.646;8.906;2022-09-06T16:07:39;5.57;;;2.75;;
4597;SDS011;62772;48.646;8.906;2022-09-06T16:12:46;4.18;;;2.58;;
4597;SDS011;62772;48.646;8.906;2022-09-06T16:17:46;7.30;;;2.40;;
4597;SDS011;62772;48.646;8.906;2022-09-06T16:22:47;5.00;;;2.25;;
4597;SDS011;62772;48.646;8.906;2022-09-06T16:27:50;9.15;;;2.45;;
4597;SDS011;62772;48.646;8.906;2022-09-06T16:32:51;3.38;;;2.10;;
4597;SDS011;62772;48.646;8.906;2022-09-06T16:37:52;4.15;;;2.00;;
4597;SDS011;62772;48.646;8.906;2022-09-06T16:42:55;4.70;;;2.50;;
4597;SDS011;62772;48.646;8.906;2022-09-06T16:47:56;4.53;;;2.25;;
4597;SDS011;62772;48.646;8.906;2022-09-06T16:52:57;5.85;;;2.03;;
4597;SDS011;62772;48.646;8.906;2022-09-06T16:58:00;3.75;;;2.20;;
4597;SDS011;62772;48.646;8.906;2022-09-06T17:03:01;5.22;;;2.10;;
4597;SDS011;62772;48.646;8.906;2022-09-06T17:08:01;5.97;;;2.20;;
4597;SDS011;62772;48.646;8.906;2022-09-06T17:13:05;3.10;;;1.88;;
4597;SDS011;62772;48.646;8.906;2022-09-06T17:18:06;5.18;;;2.30;;
4597;SDS011;62772;48.646;8.906;2022-09-06T17:23:07;5.50;;;2.42;;
4597;SDS011;62772;48.646;8.906;2022-09-06T17:28:10;6.85;;;2.30;;
4597;SDS011;62772;48.646;8.906;2022-09-06T17:33:11;6.47;;;2.63;;
4597;SDS011;62772;48.646;8.906;2022-09-06T17:38:13;6.15;;;2.63;;
4597;SDS011;62772;48.646;8.906;2022-09-06T17:43:17;7.63;;;2.35;;
4597;SDS011;62772;48.646;8.906;2022-09-06T17:48:18;7.03;;;2.63;;
4597;SDS011;62772;48.646;8.906;2022-09-06T17:53:19;4.97;;;2.20;;
4597;SDS011;62772;48.646;8.906;2022-09-06T17:58:22;5.18;;;2.50;;
4597;SDS011;62772;48.646;8.906;2022-09-06T18:03:23;5.22;;;2.30;;
4597;SDS011;62772;48.646;8.906;2022-09-06T18:08:24;3.45;;;2.33;;
4597;SDS011;62772;48.646;8.906;2022-09-06T18:13:28;6.07;;;2.50;;
4597;SDS011;62772;48.646;8.906;2022-09-06T18:18:29;4.82;;;2.35;;
4597;SDS011;62772;48.646;8.906;2022-09-06T18:23:30;7.35;;;2.78;;
4597;SDS011;62772;48.646;8.906;2022-09-06T18:28:34;6.90;;;3.00;;
4597;SDS011;62772;48.646;8.906;2022-09-06T18:33:36;5.25;;;2.75;;
4597;SDS011;62772;48.646;8.906;2022-09-06T18:38:38;4.22;;;2.50;;
4597;SDS011;62772;48.646;8.906;2022-09-06T18:43:44;6.43;;;2.40;;
4597;SDS011;62772;48.646;8.906;2022-09-06T18:48:45;5.55;;;2.63;;
4597;SDS011;62772;48.646;8.906;2022-09-06T18:53:46;5.82;;;2.78;;
4597;SDS011;62772;48.646;8.906;2022-09-06T18:58:52;5.18;;;2.70;;
4597;SDS011;62772;48.646;8.906;2022-09-06T19:03:54;5.22;;;2.75;;
4597;SDS011;62772;48.646;8.906;2022-09-06T19:08:56;5.65;;;3.33;;
4597;SDS011;62772;48.646;8.906;2022-09-06T19:14:00;9.80;;;3.47;;
4597;SDS011;62772;48.646;8.906;2022-09-06T19:19:02;14.87;;;3.60;;
4597;SDS011;62772;48.646;8.906;2022-09-06T19:24:04;14.40;;;4.13;;
4597;SDS011;62772;48.646;8.906;2022-09-06T19:29:10;9.20;;;4.07;;
4597;SDS011;62772;48.646;8.906;2022-09-06T19:34:12;8.53;;;4.50;;
4597;SDS011;62772;48.646;8.906;2022-09-06T19:39:14;11.07;;;4.53;;
4597;SDS011;62772;48.646;8.906;2022-09-06T19:44:18;12.10;;;4.50;;
4597;SDS011;62772;48.646;8.906;2022-09-06T19:49:19;8.70;;;3.60;;
4597;SDS011;62772;48.646;8.906;2022-09-06T19:54:20;10.30;;;4.63;;
4597;SDS011;62772;48.646;8.906;2022-09-06T19:59:24;6.70;;;3.80;;
4597;SDS011;62772;48.646;8.906;2022-09-06T20:04:25;6.27;;;3.70;;
4597;SDS011;62772;48.646;8.906;2022-09-06T20:09:27;7.87;;;3.20;;
4597;SDS011;62772;48.646;8.906;2022-09-06T20:14:30;6.43;;;3.50;;
4597;SDS011;62772;48.646;8.906;2022-09-06T20:19:31;5.90;;;3.07;;
4597;SDS011;62772;48.646;8.906;2022-09-06T20:24:32;7.87;;;3.63;;
4597;SDS011;62772;48.646;8.906;2022-09-06T20:29:35;6.53;;;3.47;;
4597;SDS011;62772;48.646;8.906;2022-09-06T20:34:36;11.07;;;3.70;;
4597;SDS011;62772;48.646;8.906;2022-09-06T20:39:37;9.40;;;3.43;;
4597;SDS011;62772;48.646;8.906;2022-09-06T20:44:40;6.50;;;3.53;;
4597;SDS011;62772;48.646;8.906;2022-09-06T20:49:41;6.10;;;3.70;;
4597;SDS011;62772;48.646;8.906;2022-09-06T20:54:43;4.63;;;3.07;;
4597;SDS011;62772;48.646;8.906;2022-09-06T20:59:46;5.70;;;3.40;;
4597;SDS011;62772;48.646;8.906;2022-09-06T21:04:48;9.40;;;3.70;;
4597;SDS011;62772;48.646;8.906;2022-09-06T21:09:49;6.33;;;3.43;;
4597;SDS011;62772;48.646;8.906;2022-09-06T21:14:52;4.47;;;3.10;;
4597;SDS011;62772;48.646;8.906;2022-09-06T21:19:54;7.00;;;3.17;;
4597;SDS011;62772;48.646;8.906;2022-09-06T21:24:54;6.97;;;3.60;;
4597;SDS011;62772;48.646;8.906;2022-09-06T21:29:57;7.67;;;3.47;;
4597;SDS011;62772;48.646;8.906;2022-09-06T21:34:58;7.67;;;3.23;;
4597;SDS011;62772;48.646;8.906;2022-09-06T21:39:59;7.33;;;3.37;;
4597;SDS011;62772;48.646;8.906;2022-09-06T21:45:02;6.40;;;3.10;;
4597;SDS011;62772;48.646;8.906;2022-09-06T21:50:03;8.07;;;3.43;;
4597;SDS011;62772;48.646;8.906;2022-09-06T21:55:05;4.63;;;3.00;;
4597;SDS011;62772;48.646;8.906;2022-09-06T22:00:09;5.53;;;2.70;;
4597;SDS011;62772;48.646;8.906;2022-09-06T22:05:11;3.97;;;2.80;;
4597;SDS011;62772;48.646;8.906;2022-09-06T22:10:12;7.23;;;3.10;;
4597;SDS011;62772;48.646;8.906;2022-09-06T22:15:16;4.50;;;2.67;;
4597;SDS011;62772;48.646;8.906;2022-09-06T22:20:18;4.80;;;2.77;;
4597;SDS011;62772;48.646;8.906;2022-09-06T22:25:20;7.83;;;3.00;;
4597;SDS011;62772;48.646;8.906;2022-09-06T22:30:23;12.80;;;3.63;;
4597;SDS011;62772;48.646;8.906;2022-09-06T22:35:24;6.17;;;3.27;;
4597;SDS011;62772;48.646;8.906;2022-09-06T22:40:25;4.70;;;2.57;;
4597;SDS011;62772;48.646;8.906;2022-09-06T22:45:28;5.17;;;2.80;;
4597;SDS011;62772;48.646;8.906;2022-09-06T22:50:31;6.10;;;2.70;;
4597;SDS011;62772;48.646;8.906;2022-09-06T22:55:31;3.97;;;2.60;;
4597;SDS011;62772;48.646;8.906;2022-09-06T23:00:36;4.70;;;2.77;;
4597;SDS011;62772;48.646;8.906;2022-09-06T23:05:37;7.50;;;3.03;;
4597;SDS011;62772;48.646;8.906;2022-09-06T23:10:38;4.30;;;2.50;;
4597;SDS011;62772;48.646;8.906;2022-09-06T23:15:42;4.47;;;2.37;;
4597;SDS011;62772;48.646;8.906;2022-09-06T23:20:45;4.10;;;2.30;;
4597;SDS011;62772;48.646;8.906;2022-09-06T23:25:46;5.53;;;2.70;;
4597;SDS011;62772;48.646;8.906;2022-09-06T23:30:49;4.97;;;2.40;;
4597;SDS011;62772;48.646;8.906;2022-09-06T23:35:52;8.27;;;2.97;;
4597;SDS011;62772;48.646;8.906;2022-09-06T23:40:53;4.50;;;2.10;;
4597;SDS011;62772;48.646;8.906;2022-09-06T23:45:56;4.07;;;2.20;;
4597;SDS011;62772;48.646;8.906;2022-09-06T23:50:57;12.70;;;2.77;;
4597;SDS011;62772;48.646;8.906;2022-09-06T23:55:58;10.43;;;3.00;;
